Terminal Aerodrome Forecast
Issued by NWS Wilmington, OH

Current Version | Previous Version | Text Only | Print | Product List | Glossary Off
Versions: 1 2 3 4 5 6 7 8 9 10 11 12

000
FTUS41 KILN 091100
TAFILN
TAF
KILN 091127Z 0912/1012 24006KT P6SM FEW040
     FM091500 27010KT P6SM BKN040
     FM100000 31006KT P6SM SCT040
     FM100800 00000KT 5SM BR SKC
      TEMPO 1009/1012 1SM BR=

USA.gov is the U.S. government's official web portal to all federal, state and local government web resources and services.